Industry, New York
Current Conditions -  °F | °C
As of 2:54 PM on Thursday 29 Jan 2015 (Local Time) from KROC Reporting Station
Overcast Overcast  
Wind Chill: 30°   Ceiling: 4300
Heat Index: 35°   Visibility: 10mi
Dew Point:   Wind: 6mph
Humidity: 34%   Direction: 170°S
Pressure: 29.77"   Gusts: NA
Location:  42.9942°N, 77.6714°W
Report Text: KROC 291954Z 17005KT 10SM OVC043 02/M13 A2977 RMK AO2 SLP093 P0000 T00171128
Loading
Personal Weather Stations






























Interactive Weather Map New forecast layout! Learn more

10-Day Weather Forecast

Advertisements
Track Severe Weather on mobile